PST,Max TemperatureF,Mean TemperatureF,Min TemperatureF,Max Dew PointF,MeanDew PointF,Min DewpointF,Max Humidity, Mean Humidity, Min Humidity, Max Sea Level PressureIn, Mean Sea Level PressureIn, Min Sea Level PressureIn, Max VisibilityMiles, Mean VisibilityMiles, Min VisibilityMiles, Max Wind SpeedMPH, Mean Wind SpeedMPH, Max Gust SpeedMPH,PrecipitationIn, CloudCover, Events, WindDirDegrees
2011-12-1,70,50,29,35,31,27,100,62,24,30.33,30.23,30.13,10,10,10,10,2,,0.00,0,,316
2011-12-2,73,53,33,38,32,27,85,54,22,30.13,30.07,29.99,10,10,7,6,1,,0.00,0,,3
2011-12-3,65,47,29,33,28,18,92,54,16,30.29,30.20,30.13,10,10,9,6,1,,0.00,0,,261
2011-12-4,62,45,27,36,30,26,100,64,27,30.30,30.24,30.15,10,10,8,6,1,,0.00,0,,293
2011-12-5,62,44,26,33,28,22,92,57,22,30.33,30.25,30.19,10,10,6,6,1,,0.00,0,,28
2011-12-6,59,43,27,34,29,25,92,61,30,30.43,30.37,30.32,10,10,7,0,0,,0.00,0,,-1
2011-12-7,59,44,28,36,31,27,92,63,33,30.36,30.25,30.16,10,10,8,5,0,,0.00,0,,317
2011-12-8,62,46,30,39,34,30,100,70,39,30.19,30.15,30.09,10,10,8,4,0,,0.00,0,,296
2011-12-9,62,45,28,39,33,27,96,68,39,30.25,30.19,30.14,10,9,6,5,1,,0.00,0,,309
2011-12-10,59,44,28,38,33,27,96,67,37,30.19,30.11,30.03,10,10,8,4,0,,0.00,0,,260
2011-12-11,50,40,30,39,34,28,100,81,61,30.02,29.91,29.83,10,9,4,4,0,,0.00,4,,63
2011-12-12,56,44,32,39,36,31,100,74,47,29.91,29.81,29.75,10,9,3,8,1,,0.00,4,,330
2011-12-13,57,42,26,41,32,25,100,74,47,30.17,30.03,29.92,10,8,1,5,1,,0.01,0,,15
2011-12-14,53,41,29,43,35,27,100,80,59,30.33,30.23,30.18,10,9,3,6,2,,0.07,5,Rain,180
2011-12-15,56,45,33,44,41,33,100,80,59,30.30,30.24,30.19,10,8,2,5,2,,0.22,5,Rain,338
2011-12-16,61,46,30,40,33,29,100,68,36,30.32,30.25,30.15,10,4,0,4,1,,T,2,Fog,328
2011-12-17,67,48,29,40,34,28,100,63,26,30.22,30.14,30.08,10,9,2,4,0,,0.00,0,,10
2011-12-18,59,44,28,39,33,27,96,67,37,30.22,30.14,30.10,10,10,7,4,0,,0.00,0,,295
2011-12-19,60,46,31,43,35,30,100,74,47,30.17,30.12,30.03,10,5,0,5,1,,0.00,2,Fog,325
2011-12-20,64,45,26,35,31,26,96,62,27,30.13,30.08,30.01,10,9,6,5,1,,0.00,0,,290
2011-12-21,63,45,27,38,32,26,92,63,34,30.21,30.12,30.06,10,9,5,6,1,,0.00,0,,280
2011-12-22,57,40,23,28,25,21,96,61,26,30.51,30.36,30.23,10,10,7,5,1,,0.00,0,,306
2011-12-23,59,42,24,29,25,22,92,58,24,30.61,30.54,30.50,10,9,4,5,1,,0.00,0,,306
2011-12-24,62,44,25,36,29,23,92,61,29,30.51,30.45,30.37,10,10,7,4,0,,0.00,0,,280
2011-12-25,59,43,27,34,30,26,92,62,31,30.47,30.39,30.33,10,10,6,5,0,,0.00,0,,20
2011-12-26,58,43,27,41,32,27,100,74,47,30.38,30.32,30.27,10,7,0,6,1,,0.00,2,Fog,354
2011-12-27,58,46,34,40,38,37,100,74,47,30.40,30.36,30.30,10,10,9,5,1,,0.00,4,,317
2011-12-28,61,50,39,52,45,37,93,75,57,30.40,30.33,30.29,10,10,10,5,1,,0.00,7,,313
2011-12-29,60,55,50,55,53,50,100,90,80,30.28,30.20,30.12,10,7,0,4,0,,0.00,8,Fog,320
2011-12-30,57,46,34,54,49,35,100,82,63,30.27,30.16,30.11,10,6,1,10,3,,0.13,6,Rain,226
2011-12-31,58,44,30,42,34,30,100,74,47,30.29,30.25,30.17,10,6,0,4,1,,0.01,2,Fog,298